M I D A S
Marine Information and Data Acquisition System
Tripno 2157 of the Zeeleeuw from 2011-08-03 05:13:21 to 2011-08-03 14:39:46
Back to CruiseResearch ActivitiesStationsMapUnderway DataData graphs

EquipmentUnitsComment
TimeDGPSUTC
LatitudeDGPSDM.mWGS84
LongitudeDGPSDM.mWGS84
HeadingGyrodeg 
SOGDGPSknotsSpeed over ground
COGDGPSdegCourse over ground
DepthEcho soundermeters200 kHz
Missing or incorrect values are displayed as -999
Navigation data collected by the RV Zeeleeuw from 2011-08-03 05:09:19 to 2011-08-03 14:46:54
                                                                                    Next 1000 lines
Time Latitude Longitude Heading SOG COG Depth
2011-08-03 05:09:28 51°13.61 2°56.062 112.2 0.7 286 10.1
2011-08-03 05:09:34 51°13.61 2°56.059 112.2 1.1 290 10
2011-08-03 05:09:39 51°13.611 2°56.056 112.5 1.5 289 9.9
2011-08-03 05:09:44 51°13.612 2°56.052 112.8 2 291 9.5
2011-08-03 05:09:49 51°13.614 2°56.047 113.3 2.5 293 -999
2011-08-03 05:09:55 51°13.616 2°56.04 113.5 3 293 -999
2011-08-03 05:10:02 51°13.618 2°56.031 113.6 3.4 294 -999
2011-08-03 05:10:07 51°13.62 2°56.023 113.6 3.7 293 -999
2011-08-03 05:10:12 51°13.623 2°56.015 113.8 4 294 -999
2011-08-03 05:10:17 51°13.625 2°56.007 113.9 4.2 294 -999
2011-08-03 05:10:22 51°13.628 2°55.998 113.9 4.5 293 -999
2011-08-03 05:10:27 51°13.63 2°55.988 113.9 4.6 293 -999
2011-08-03 05:10:32 51°13.633 2°55.979 113.9 4.7 294 -999
2011-08-03 05:10:37 51°13.636 2°55.969 114.5 4.9 294 -999
2011-08-03 05:10:42 51°13.639 2°55.959 115.4 5 295 -999
2011-08-03 05:10:47 51°13.642 2°55.949 116.4 5.1 295 -999
2011-08-03 05:10:53 51°13.646 2°55.936 117.3 5.3 296 -999
2011-08-03 05:10:58 51°13.649 2°55.926 118.3 5.4 297 -999
2011-08-03 05:11:02 51°13.652 2°55.917 119.5 5.5 298 -999
2011-08-03 05:11:08 51°13.657 2°55.904 120.5 5.6 299 -999
2011-08-03 05:11:12 51°13.66 2°55.895 121.3 5.7 300 -999
2011-08-03 05:11:17 51°13.664 2°55.884 122 5.7 301 -999
2011-08-03 05:11:22 51°13.668 2°55.873 122.8 5.8 301 -999
2011-08-03 05:11:28 51°13.673 2°55.86 123.5 5.8 302 -999
2011-08-03 05:11:33 51°13.677 2°55.85 124.2 5.8 303 -999
2011-08-03 05:11:37 51°13.681 2°55.841 124.8 5.9 303 -999
2011-08-03 05:11:42 51°13.685 2°55.83 125.1 6 305 -999
2011-08-03 05:11:48 51°13.691 2°55.817 125.9 6 304 -999
2011-08-03 05:11:53 51°13.696 2°55.806 126.9 6.1 306 -999
2011-08-03 05:11:58 51°13.701 2°55.795 128.2 6.1 306 -999
2011-08-03 05:12:02 51°13.705 2°55.786 129.8 6.1 308 -999
2011-08-03 05:12:08 51°13.712 2°55.774 131.6 6.2 309 -999
2011-08-03 05:12:13 51°13.717 2°55.764 133.3 6.1 312 -999
2011-08-03 05:12:18 51°13.723 2°55.753 134.6 6.1 312 -999
2011-08-03 05:12:22 51°13.728 2°55.745 136 6.1 314 -999
2011-08-03 05:12:27 51°13.734 2°55.736 137.4 6.1 315 -999
2011-08-03 05:12:33 51°13.741 2°55.725 138.7 6.1 317 -999
2011-08-03 05:12:37 51°13.746 2°55.717 140.2 6.1 318 -999
2011-08-03 05:12:42 51°13.753 2°55.708 141.4 6.1 319 -999
2011-08-03 05:12:47 51°13.759 2°55.7 142.5 6.1 320 -999
2011-08-03 05:12:52 51°13.766 2°55.692 143.8 6.1 322 -999
2011-08-03 05:12:58 51°13.774 2°55.682 145.3 6.2 323 -999
2011-08-03 05:13:03 51°13.782 2°55.674 147.4 6.2 326 -999
2011-08-03 05:13:07 51°13.788 2°55.669 149.7 6.1 328 -999
2011-08-03 05:13:13 51°13.797 2°55.661 152.2 6.1 331 -999
2011-08-03 05:13:17 51°13.802 2°55.656 154.5 5.9 332 -999
2011-08-03 05:13:23 51°13.811 2°55.649 156.6 5.9 335 -999
2011-08-03 05:13:27 51°13.817 2°55.645 158.5 5.8 336 -999
2011-08-03 05:13:32 51°13.825 2°55.641 160.5 5.7 338 -999
2011-08-03 05:13:37 51°13.832 2°55.637 162.8 5.6 340 -999
2011-08-03 05:13:43 51°13.841 2°55.632 165.1 5.5 342 -999
2011-08-03 05:13:48 51°13.848 2°55.629 167.5 5.4 344 -999
2011-08-03 05:13:52 51°13.854 2°55.627 169.9 5.3 346 -999
2011-08-03 05:13:57 51°13.861 2°55.625 172.4 5.2 349 -999
2011-08-03 05:14:03 51°13.869 2°55.623 174.3 5.1 351 -999
2011-08-03 05:14:08 51°13.876 2°55.621 177.1 4.9 353 -999
2011-08-03 05:14:13 51°13.883 2°55.62 179.4 4.9 355 -999
2011-08-03 05:14:18 51°13.89 2°55.62 181.8 4.7 358 -999
2011-08-03 05:14:23 51°13.896 2°55.62 184.4 4.7 -999 -999
2011-08-03 05:14:28 51°13.902 2°55.621 187.2 4.6 3 -999
2011-08-03 05:14:32 51°13.907 2°55.622 190 4.5 6 -999
2011-08-03 05:14:37 51°13.913 2°55.623 192.6 4.4 9 -999
2011-08-03 05:14:42 51°13.919 2°55.625 194.9 4.4 11 -999
2011-08-03 05:14:48 51°13.926 2°55.628 197 4.3 13 -999
2011-08-03 05:14:53 51°13.932 2°55.63 199 4.2 14 -999
2011-08-03 05:14:57 51°13.936 2°55.632 200.7 4.1 16 -999
2011-08-03 05:15:03 51°13.942 2°55.635 202.3 3.9 17 -999
2011-08-03 05:15:08 51°13.947 2°55.638 204 3.8 19 -999
2011-08-03 05:15:12 51°13.95 2°55.639 205.5 3.5 19 -999
2011-08-03 05:15:17 51°13.954 2°55.642 207 3.2 22 -999
2011-08-03 05:15:22 51°13.958 2°55.644 209.1 2.7 21 -999
2011-08-03 05:15:27 51°13.961 2°55.646 211 2.2 22 -999
2011-08-03 05:15:32 51°13.963 2°55.647 213 1.8 22 13
2011-08-03 05:15:37 51°13.965 2°55.649 214.4 1.4 23 13.1
2011-08-03 05:15:42 51°13.966 2°55.649 217.4 1 18 13.1
2011-08-03 05:15:47 51°13.967 2°55.65 221.1 0.7 13 13.1
2011-08-03 05:15:52 51°13.967 2°55.65 225.1 0.4 348 13.1
2011-08-03 05:15:58 51°13.968 2°55.649 229 0.4 297 13.1
2011-08-03 05:16:02 51°13.968 2°55.648 233.4 0.6 284 13
2011-08-03 05:16:07 51°13.968 2°55.646 238 0.7 274 13.1
2011-08-03 05:16:12 51°13.968 2°55.643 243 1 267 13.3
2011-08-03 05:16:17 51°13.968 2°55.641 248.3 1.2 268 13.1
2011-08-03 05:16:22 51°13.968 2°55.637 253.8 1.6 269 13.1
2011-08-03 05:16:27 51°13.968 2°55.633 259.4 1.8 272 13.1
2011-08-03 05:16:33 51°13.968 2°55.628 266.5 2 277 13
2011-08-03 05:16:38 51°13.969 2°55.623 271.2 2.3 281 13.1
2011-08-03 05:16:43 51°13.97 2°55.617 277.1 2.5 287 12.9
2011-08-03 05:16:47 51°13.971 2°55.613 283.3 2.7 291 12.9
2011-08-03 05:16:52 51°13.973 2°55.607 289.7 2.8 297 12.8
2011-08-03 05:16:57 51°13.976 2°55.601 296 3.1 301 12.8
2011-08-03 05:17:01 51°13.978 2°55.596 302.2 3.3 308 12.6
2011-08-03 05:17:06 51°13.981 2°55.59 307.2 3.6 311 12.9
2011-08-03 05:17:10 51°13.984 2°55.585 313.6 3.9 315 12.9
2011-08-03 05:17:15 51°13.988 2°55.579 317.4 4.1 316 12.3
2011-08-03 05:17:20 51°13.993 2°55.572 319.5 4.4 317 12.5
2011-08-03 05:17:25 51°13.998 2°55.565 320.4 4.8 318 -999
2011-08-03 05:17:30 51°14.003 2°55.558 321 5 319 12.8
2011-08-03 05:17:36 51°14.01 2°55.549 321.5 5.3 320 12.8
2011-08-03 05:17:41 51°14.016 2°55.541 322.3 5.7 321 13.1
2011-08-03 05:17:46 51°14.022 2°55.533 323.1 5.9 322 12.8
2011-08-03 05:17:51 51°14.029 2°55.525 324.2 6.1 323 12.6
2011-08-03 05:17:55 51°14.035 2°55.518 325.2 6.3 324 12.4
2011-08-03 05:18:00 51°14.043 2°55.51 326.1 6.5 325 12.8
2011-08-03 05:18:06 51°14.052 2°55.5 327.1 6.7 326 12.7
2011-08-03 05:18:11 51°14.06 2°55.491 328 6.9 326 12.7
2011-08-03 05:18:15 51°14.066 2°55.485 328.3 7 327 -999
2011-08-03 05:18:20 51°14.075 2°55.476 329.2 7.1 328 12.8
2011-08-03 05:18:25 51°14.083 2°55.468 330.1 7.2 328 12.7
2011-08-03 05:18:30 51°14.092 2°55.459 330.8 7.3 329 12.7
2011-08-03 05:18:35 51°14.101 2°55.451 331.1 7.5 329 12.7
2011-08-03 05:18:39 51°14.108 2°55.444 331.2 7.5 329 12.2
2011-08-03 05:18:44 51°14.117 2°55.435 331.3 7.6 330 12.7
2011-08-03 05:18:49 51°14.126 2°55.427 332 7.8 330 12.7
2011-08-03 05:18:54 51°14.136 2°55.418 332.3 8 330 12.6
2011-08-03 05:18:59 51°14.146 2°55.409 332.4 8.2 331 12.6
2011-08-03 05:19:03 51°14.154 2°55.402 332.5 8.5 331 12.6
2011-08-03 05:19:09 51°14.167 2°55.391 332.9 8.7 332 12.6
2011-08-03 05:19:14 51°14.178 2°55.381 332.8 8.8 330 12.6
2011-08-03 05:19:19 51°14.189 2°55.372 332.7 8.9 331 12.6
2011-08-03 05:19:23 51°14.197 2°55.364 333.2 9.1 331 12.6
2011-08-03 05:19:29 51°14.211 2°55.352 333.4 9.1 331 12.6
2011-08-03 05:19:34 51°14.222 2°55.342 333.2 9.3 330 12.6
2011-08-03 05:19:39 51°14.233 2°55.332 333 9.3 331 12.6
2011-08-03 05:19:43 51°14.242 2°55.323 332.9 9.5 330 12.5
2011-08-03 05:19:49 51°14.256 2°55.311 332.2 9.5 330 12.5
2011-08-03 05:19:54 51°14.268 2°55.3 331.3 9.6 329 12.5
2011-08-03 05:19:59 51°14.279 2°55.289 330.7 9.7 329 12.4
2011-08-03 05:20:03 51°14.289 2°55.28 330.6 9.8 329 12.5
2011-08-03 05:20:09 51°14.303 2°55.267 331.9 9.9 331 12.5
2011-08-03 05:20:14 51°14.315 2°55.255 332.6 10.1 330 12.5
2011-08-03 05:20:19 51°14.327 2°55.244 332.5 10.2 330 12.4
2011-08-03 05:20:23 51°14.337 2°55.235 332 10.3 329 12.4
2011-08-03 05:20:29 51°14.352 2°55.221 332.1 10.3 331 -999
2011-08-03 05:20:34 51°14.365 2°55.21 332.5 10.4 330 12.4
2011-08-03 05:20:39 51°14.377 2°55.199 332.3 10.4 330 12.5
2011-08-03 05:20:43 51°14.388 2°55.19 332.4 10.4 330 12.2
2011-08-03 05:20:49 51°14.403 2°55.176 332.3 10.5 329 12.6
2011-08-03 05:20:54 51°14.415 2°55.163 331.5 10.7 329 12.6
2011-08-03 05:20:59 51°14.428 2°55.151 330.9 10.8 328 12.5
2011-08-03 05:21:03 51°14.438 2°55.14 330.3 10.9 327 12.6
2011-08-03 05:21:09 51°14.454 2°55.124 330 11.1 327 12.3
2011-08-03 05:21:14 51°14.467 2°55.11 329.8 11.2 327 12.2
2011-08-03 05:21:19 51°14.48 2°55.097 329.7 11.4 327 12.5
2011-08-03 05:21:23 51°14.49 2°55.085 329.4 11.5 326 12.4
2011-08-03 05:21:29 51°14.507 2°55.068 329.1 11.7 326 12.5
2011-08-03 05:21:34 51°14.52 2°55.052 328.2 11.8 323 12.7
2011-08-03 05:21:39 51°14.534 2°55.037 327 12 325 13
2011-08-03 05:21:43 51°14.544 2°55.024 326.6 12.2 323 13.2
2011-08-03 05:21:47 51°14.555 2°55.011 326.2 12.3 325 13.1
2011-08-03 05:21:54 51°14.575 2°54.989 326.2 12.5 323 13
2011-08-03 05:21:59 51°14.589 2°54.973 326.2 12.6 325 13
2011-08-03 05:22:03 51°14.601 2°54.96 328.2 12.7 326 13
2011-08-03 05:22:08 51°14.616 2°54.944 328.9 12.8 326 13.3
2011-08-03 05:22:14 51°14.633 2°54.925 328.8 12.9 325 13
2011-08-03 05:22:19 51°14.648 2°54.91 329.6 12.9 328 12.9
2011-08-03 05:22:23 51°14.66 2°54.897 330 13 326 12.9
2011-08-03 05:22:29 51°14.678 2°54.878 329.8 13 326 12.8
2011-08-03 05:22:34 51°14.694 2°54.862 329.7 13 326 12.8
2011-08-03 05:22:39 51°14.708 2°54.846 329.2 13 326 12.8
2011-08-03 05:22:43 51°14.72 2°54.833 328.2 13 325 12.7
2011-08-03 05:22:49 51°14.738 2°54.813 327.4 13 325 12.9
2011-08-03 05:22:54 51°14.752 2°54.795 327.2 13 323 13
2011-08-03 05:22:59 51°14.767 2°54.778 325.8 13 322 12.9
2011-08-03 05:23:03 51°14.778 2°54.763 324.3 13.1 322 12.9
2011-08-03 05:23:09 51°14.795 2°54.742 323.8 13 321 13.1
2011-08-03 05:23:14 51°14.809 2°54.724 322.8 13 321 13.1
2011-08-03 05:23:19 51°14.823 2°54.707 323.1 13 323 13.1
2011-08-03 05:23:23 51°14.835 2°54.692 323.7 12.9 322 13.1
2011-08-03 05:23:29 51°14.852 2°54.671 323.8 13 322 13.1
2011-08-03 05:23:34 51°14.866 2°54.654 322.9 13 322 13.1
2011-08-03 05:23:39 51°14.88 2°54.637 323 12.9 323 13.1
2011-08-03 05:23:43 51°14.892 2°54.623 323.1 12.9 322 13.2
2011-08-03 05:23:49 51°14.909 2°54.602 323 12.9 323 13.1
2011-08-03 05:23:54 51°14.924 2°54.585 322.9 12.9 324 13.1
2011-08-03 05:23:59 51°14.938 2°54.57 324.2 12.9 326 13
2011-08-03 05:24:03 51°14.95 2°54.557 326.2 12.9 328 13
2011-08-03 05:24:09 51°14.969 2°54.54 328.7 12.8 330 12.6
2011-08-03 05:24:14 51°14.984 2°54.525 330.1 12.8 329 12.8
2011-08-03 05:24:19 51°14.999 2°54.511 329.6 12.9 329 12.8
2011-08-03 05:24:23 51°15.011 2°54.498 328.6 12.8 327 12.8
2011-08-03 05:24:28 51°15.026 2°54.483 327.3 12.8 327 12.7
2011-08-03 05:24:33 51°15.041 2°54.467 326.6 12.8 325 12.8
2011-08-03 05:24:39 51°15.059 2°54.448 325.9 12.9 327 12.7
2011-08-03 05:24:43 51°15.071 2°54.436 325.8 12.8 326 12.5
2011-08-03 05:24:49 51°15.089 2°54.417 325.8 12.8 326 12.4
2011-08-03 05:24:54 51°15.103 2°54.401 325.5 12.8 325 12.2
2011-08-03 05:24:59 51°15.117 2°54.384 324.6 12.7 324 12.4
2011-08-03 05:25:03 51°15.129 2°54.37 323.8 12.7 323 12.3
2011-08-03 05:25:09 51°15.146 2°54.35 323.4 12.7 323 12.3
2011-08-03 05:25:14 51°15.16 2°54.333 323.2 12.8 323 12.3
2011-08-03 05:25:19 51°15.174 2°54.317 323.7 12.8 324 12.5
2011-08-03 05:25:23 51°15.186 2°54.303 324.1 12.7 324 12.5
2011-08-03 05:25:29 51°15.203 2°54.283 324.5 12.7 324 12.4
2011-08-03 05:25:34 51°15.217 2°54.266 324.5 12.7 323 12.3
2011-08-03 05:25:39 51°15.231 2°54.249 324.4 12.8 323 12.4
2011-08-03 05:25:43 51°15.243 2°54.236 324.4 12.8 322 12.4
2011-08-03 05:25:49 51°15.259 2°54.215 323.8 12.8 323 12.5
2011-08-03 05:25:54 51°15.273 2°54.198 323.8 12.8 323 12.6
2011-08-03 05:25:59 51°15.288 2°54.181 324 12.8 323 12.5
2011-08-03 05:26:03 51°15.299 2°54.167 324.1 12.8 323 12.4
2011-08-03 05:26:07 51°15.31 2°54.154 324.2 12.7 323 12.7
2011-08-03 05:26:14 51°15.33 2°54.13 324.3 12.7 323 12.6
2011-08-03 05:26:19 51°15.344 2°54.113 324.2 12.7 323 12.7
2011-08-03 05:26:23 51°15.355 2°54.1 323.9 12.7 323 12.6
2011-08-03 05:26:28 51°15.37 2°54.083 323.9 12.7 324 12.3
2011-08-03 05:26:34 51°15.387 2°54.063 325 12.7 325 12.1
2011-08-03 05:26:39 51°15.401 2°54.048 326.7 12.7 326 11.9
2011-08-03 05:26:43 51°15.413 2°54.035 326.9 12.7 325 12.1
2011-08-03 05:26:49 51°15.43 2°54.016 326.5 12.6 325 12.1
2011-08-03 05:26:54 51°15.444 2°53.999 325.8 12.7 324 12
2011-08-03 05:26:59 51°15.459 2°53.983 325.5 12.7 324 12.1
2011-08-03 05:27:03 51°15.47 2°53.969 325 12.7 323 12.1
2011-08-03 05:27:09 51°15.486 2°53.948 323.7 12.6 321 12.3
2011-08-03 05:27:14 51°15.499 2°53.93 322 12.6 319 12.4
2011-08-03 05:27:19 51°15.512 2°53.911 320.6 12.6 318 12.5
2011-08-03 05:27:23 51°15.523 2°53.896 319.5 12.6 318 12.7
2011-08-03 05:27:29 51°15.538 2°53.873 318.6 12.6 317 13
2011-08-03 05:27:34 51°15.551 2°53.854 317.8 12.6 316 13
2011-08-03 05:27:39 51°15.563 2°53.835 317.1 12.6 316 13.1
2011-08-03 05:27:43 51°15.573 2°53.819 316.6 12.6 316 13
2011-08-03 05:27:49 51°15.588 2°53.796 316.6 12.6 316 13
2011-08-03 05:27:54 51°15.601 2°53.777 317.2 12.6 317 12.9
2011-08-03 05:27:59 51°15.614 2°53.758 317.8 12.6 317 13.1
2011-08-03 05:28:03 51°15.624 2°53.743 318.3 12.6 318 13.1
2011-08-03 05:28:09 51°15.64 2°53.72 319 12.6 318 13.2
2011-08-03 05:28:14 51°15.653 2°53.702 319.3 12.6 318 13.2
2011-08-03 05:28:19 51°15.666 2°53.683 319.4 12.6 318 13.3
2011-08-03 05:28:23 51°15.676 2°53.668 319.4 12.6 317 13.2
2011-08-03 05:28:29 51°15.692 2°53.646 319.2 12.6 317 13.3
2011-08-03 05:28:34 51°15.705 2°53.626 318.7 12.6 317 13.4
2011-08-03 05:28:39 51°15.718 2°53.609 320 12.6 320 13.3
2011-08-03 05:28:43 51°15.729 2°53.595 321.6 12.6 320 13.4
2011-08-03 05:28:49 51°15.746 2°53.574 322.7 12.6 322 13.4
2011-08-03 05:28:54 51°15.76 2°53.557 323.8 12.6 323 13.4
2011-08-03 05:28:59 51°15.774 2°53.541 324.8 12.6 324 13.5
2011-08-03 05:29:03 51°15.786 2°53.529 326.4 12.7 326 13.6
2011-08-03 05:29:09 51°15.804 2°53.512 328.9 12.6 329 13.5
2011-08-03 05:29:14 51°15.819 2°53.498 331 12.7 330 13.6
2011-08-03 05:29:19 51°15.834 2°53.483 331.3 12.7 330 13.5
2011-08-03 05:29:23 51°15.847 2°53.473 332.1 12.7 332 13.4
2011-08-03 05:29:29 51°15.865 2°53.457 332.9 12.7 332 13.5
2011-08-03 05:29:34 51°15.881 2°53.444 333.4 12.7 332 13.5
2011-08-03 05:29:39 51°15.897 2°53.431 334 12.7 332 13.6
2011-08-03 05:29:43 51°15.909 2°53.42 334 12.7 332 13.3
2011-08-03 05:29:49 51°15.927 2°53.404 333.3 12.7 331 13.1
2011-08-03 05:29:54 51°15.943 2°53.39 332.9 12.7 331 12.9
2011-08-03 05:29:59 51°15.958 2°53.376 332.8 12.7 331 13.1
2011-08-03 05:30:04 51°15.974 2°53.363 332.7 12.7 331 13
2011-08-03 05:30:09 51°15.989 2°53.349 332.3 12.7 330 13
2011-08-03 05:30:14 51°16.004 2°53.335 331.7 12.7 329 12.8
2011-08-03 05:30:19 51°16.019 2°53.32 330.5 12.7 328 12.9
2011-08-03 05:30:23 51°16.031 2°53.308 329.6 12.7 328 13.1
2011-08-03 05:30:29 51°16.049 2°53.289 328.6 12.7 327 12.9
2011-08-03 05:30:34 51°16.064 2°53.274 327.7 12.8 327 12.9
2011-08-03 05:30:39 51°16.078 2°53.258 327.6 12.8 327 13
2011-08-03 05:30:43 51°16.09 2°53.246 327.1 12.8 326 13
2011-08-03 05:30:49 51°16.108 2°53.229 328.3 12.8 330 13.1
2011-08-03 05:30:54 51°16.124 2°53.215 330.4 12.8 331 13
2011-08-03 05:30:59 51°16.139 2°53.202 332.3 12.8 332 13.1
2011-08-03 05:31:03 51°16.152 2°53.19 332.6 12.8 331 13
2011-08-03 05:31:09 51°16.171 2°53.174 332.7 12.8 331 13.1
2011-08-03 05:31:14 51°16.186 2°53.16 332.5 12.8 331 13.2
2011-08-03 05:31:19 51°16.202 2°53.147 332 12.8 331 13.2
2011-08-03 05:31:23 51°16.214 2°53.136 331.8 12.7 330 13.2
2011-08-03 05:31:29 51°16.232 2°53.119 331.4 12.7 330 13.2
2011-08-03 05:31:33 51°16.245 2°53.107 330.7 12.7 329 13.2
2011-08-03 05:31:39 51°16.263 2°53.09 330.2 12.8 329 13.2
2011-08-03 05:31:43 51°16.275 2°53.078 329.8 12.7 329 13.2
2011-08-03 05:31:49 51°16.293 2°53.061 329.6 12.7 329 13.3
2011-08-03 05:31:54 51°16.308 2°53.046 329.3 12.7 329 13.2
2011-08-03 05:31:59 51°16.323 2°53.031 329.2 12.7 329 13.2
2011-08-03 05:32:03 51°16.335 2°53.02 329.2 12.7 329 13.3
2011-08-03 05:32:09 51°16.353 2°53.002 329.2 12.7 329 13.2
2011-08-03 05:32:14 51°16.368 2°52.988 329.2 12.7 328 13.3
2011-08-03 05:32:19 51°16.383 2°52.973 329 12.7 329 13.3
2011-08-03 05:32:23 51°16.395 2°52.962 329.2 12.7 329 13.3
2011-08-03 05:32:29 51°16.413 2°52.944 329.1 12.7 329 13.2
2011-08-03 05:32:34 51°16.428 2°52.929 329 12.7 328 13.2
2011-08-03 05:32:39 51°16.443 2°52.914 329.1 12.7 329 13.1
2011-08-03 05:32:43 51°16.455 2°52.903 329.1 12.8 329 13.1
2011-08-03 05:32:49 51°16.473 2°52.886 329.6 12.8 330 13.1
2011-08-03 05:32:54 51°16.489 2°52.873 331.2 12.8 332 13.1
2011-08-03 05:32:59 51°16.505 2°52.86 333.4 12.8 334 13
2011-08-03 05:33:03 51°16.518 2°52.851 335.7 12.8 336 12.9
2011-08-03 05:33:09 51°16.538 2°52.837 336.6 12.8 336 12.9
2011-08-03 05:33:14 51°16.554 2°52.826 337.6 12.8 337 12.9
2011-08-03 05:33:19 51°16.571 2°52.815 337.9 12.9 337 12.7
2011-08-03 05:33:23 51°16.584 2°52.806 338.4 12.9 338 12.7
2011-08-03 05:33:29 51°16.604 2°52.793 338.9 13 338 12.7
2011-08-03 05:33:34 51°16.62 2°52.783 338.9 12.9 338 12.6
2011-08-03 05:33:39 51°16.637 2°52.772 338.9 12.9 338 12.4
2011-08-03 05:33:43 51°16.65 2°52.763 338.6 12.9 337 12.3
2011-08-03 05:33:49 51°16.67 2°52.75 338.1 13 337 12.1
2011-08-03 05:33:54 51°16.687 2°52.738 337.6 13 337 12.1
2011-08-03 05:33:59 51°16.703 2°52.727 337.5 12.9 337 11.9
2011-08-03 05:34:03 51°16.716 2°52.718 337.5 12.9 337 11.7
2011-08-03 05:34:09 51°16.736 2°52.705 337.4 12.9 337 11.4
2011-08-03 05:34:14 51°16.753 2°52.694 337.6 12.9 337 11
2011-08-03 05:34:19 51°16.769 2°52.683 337.9 12.9 338 11
2011-08-03 05:34:24 51°16.786 2°52.672 337.7 13 337 11.1
2011-08-03 05:34:29 51°16.803 2°52.66 337.1 13 337 11
2011-08-03 05:34:34 51°16.819 2°52.649 336.6 13 337 11
2011-08-03 05:34:39 51°16.835 2°52.638 336.7 13 337 10.8
2011-08-03 05:34:43 51°16.849 2°52.629 337.1 12.9 337 10.9
2011-08-03 05:34:49 51°16.869 2°52.615 337.2 13 337 10.9
2011-08-03 05:34:54 51°16.885 2°52.604 337.2 13 337 11
2011-08-03 05:34:59 51°16.901 2°52.593 337.2 13 337 11
2011-08-03 05:35:03 51°16.914 2°52.583 336.5 12.9 336 11.1
2011-08-03 05:35:07 51°16.927 2°52.573 335.1 12.9 334 11.1
2011-08-03 05:35:14 51°16.95 2°52.555 333.3 12.9 332 11
2011-08-03 05:35:19 51°16.965 2°52.541 331.8 12.9 331 10.9
2011-08-03 05:35:23 51°16.978 2°52.53 331.2 12.9 331 10.9
2011-08-03 05:35:28 51°16.994 2°52.516 330.7 12.9 330 10.8
2011-08-03 05:35:34 51°17.012 2°52.499 330.1 12.9 331 10.8
2011-08-03 05:35:39 51°17.028 2°52.485 330.1 12.9 331 10.9
2011-08-03 05:35:43 51°17.04 2°52.474 330.4 12.8 331 10.9
2011-08-03 05:35:49 51°17.059 2°52.458 330.6 12.9 331 11
2011-08-03 05:35:54 51°17.075 2°52.444 331 13 331 11
2011-08-03 05:35:59 51°17.091 2°52.43 331 13 331 11
2011-08-03 05:36:03 51°17.103 2°52.419 330.7 13 331 11.1
2011-08-03 05:36:09 51°17.122 2°52.403 331 13 332 11.2
2011-08-03 05:36:14 51°17.138 2°52.389 331.3 12.9 331 11.3
2011-08-03 05:36:19 51°17.154 2°52.375 331.3 12.9 331 11.2
2011-08-03 05:36:23 51°17.166 2°52.364 331.2 12.9 331 11.2
2011-08-03 05:36:29 51°17.185 2°52.347 330.9 13 331 11.3
2011-08-03 05:36:34 51°17.201 2°52.335 331.3 12.9 334 11.4
2011-08-03 05:36:39 51°17.218 2°52.324 334.1 12.9 338 11.5
2011-08-03 05:36:43 51°17.231 2°52.316 339.1 12.9 341 11.5
2011-08-03 05:36:49 51°17.252 2°52.306 342.4 12.8 343 11.5
2011-08-03 05:36:54 51°17.269 2°52.299 344 13.1 347 11.5
2011-08-03 05:36:59 51°17.287 2°52.293 346.6 13 349 11.6
2011-08-03 05:37:03 51°17.301 2°52.289 349.4 12.9 350 11.7
2011-08-03 05:37:09 51°17.322 2°52.284 351.4 13 351 11.6
2011-08-03 05:37:14 51°17.34 2°52.279 352.5 12.9 352 11.7
2011-08-03 05:37:19 51°17.357 2°52.275 353.4 12.9 352 11.8
2011-08-03 05:37:23 51°17.372 2°52.272 353.7 12.9 352 11.8
2011-08-03 05:37:29 51°17.393 2°52.267 353.7 12.9 352 11.9
2011-08-03 05:37:34 51°17.411 2°52.263 353.7 12.9 352 12
2011-08-03 05:37:39 51°17.429 2°52.259 353.9 12.9 352 12
2011-08-03 05:37:43 51°17.443 2°52.255 353.8 12.9 352 12.1
2011-08-03 05:37:49 51°17.464 2°52.251 353.9 13 352 12.1
2011-08-03 05:37:53 51°17.478 2°52.247 353.9 12.9 351 12.2
2011-08-03 05:37:59 51°17.5 2°52.241 352.8 13 350 12.3
2011-08-03 05:38:03 51°17.514 2°52.237 351.8 13 350 12.3
2011-08-03 05:38:08 51°17.532 2°52.232 351.2 13 349 12.2
2011-08-03 05:38:14 51°17.553 2°52.225 350.9 13 349 12.2
2011-08-03 05:38:19 51°17.57 2°52.219 350.3 13 348 12.3
2011-08-03 05:38:23 51°17.584 2°52.214 349.7 12.9 347 12.4
2011-08-03 05:38:29 51°17.605 2°52.206 349 12.9 347 12.3
2011-08-03 05:38:34 51°17.623 2°52.199 348.4 12.9 346 12.3
2011-08-03 05:38:39 51°17.64 2°52.192 347.8 13 346 12.3
2011-08-03 05:38:43 51°17.654 2°52.186 347.5 13 346 12.2
2011-08-03 05:38:49 51°17.675 2°52.178 347 12.9 345 12.3
2011-08-03 05:38:54 51°17.692 2°52.17 346.6 12.9 345 12.2
2011-08-03 05:38:59 51°17.709 2°52.163 346.7 12.9 345 12.3
2011-08-03 05:39:03 51°17.724 2°52.157 347.1 12.9 346 12.3
2011-08-03 05:39:09 51°17.744 2°52.149 347.8 12.9 347 12.2
2011-08-03 05:39:14 51°17.762 2°52.143 348.1 12.9 347 12.3
2011-08-03 05:39:19 51°17.779 2°52.136 348.3 12.9 347 12.1
2011-08-03 05:39:23 51°17.793 2°52.132 348.8 12.9 348 12.3
2011-08-03 05:39:29 51°17.815 2°52.126 350.7 12.9 350 12.2
2011-08-03 05:39:34 51°17.832 2°52.12 351.6 13 349 12.1
2011-08-03 05:39:39 51°17.85 2°52.113 350.4 13 347 12.2
2011-08-03 05:39:43 51°17.864 2°52.109 349.3 12.9 347 12.2
2011-08-03 05:39:48 51°17.882 2°52.102 348.7 13 346 12.2
2011-08-03 05:39:54 51°17.902 2°52.093 347.7 13 345 12.3
2011-08-03 05:39:59 51°17.92 2°52.085 346.5 13 344 12.3
2011-08-03 05:40:03 51°17.933 2°52.078 345.6 13 343 12.2
2011-08-03 05:40:09 51°17.954 2°52.068 344.5 12.9 342 12.1
2011-08-03 05:40:14 51°17.971 2°52.058 343.4 12.9 341 12.1
2011-08-03 05:40:19 51°17.988 2°52.049 342.2 13 340 12.1
2011-08-03 05:40:23 51°18.001 2°52.041 341.8 13 340 12.1
2011-08-03 05:40:29 51°18.021 2°52.029 341.2 13 340 12.3
2011-08-03 05:40:34 51°18.038 2°52.019 341 13 340 12.2
2011-08-03 05:40:39 51°18.055 2°52.009 341.2 12.9 340 12
2011-08-03 05:40:43 51°18.069 2°52.002 341.8 12.9 341 11.9
2011-08-03 05:40:49 51°18.089 2°51.991 342 12.9 341 11.9
2011-08-03 05:40:54 51°18.106 2°51.982 342.2 12.9 342 11.7
2011-08-03 05:40:59 51°18.123 2°51.974 343.1 13 343 11.8
2011-08-03 05:41:03 51°18.137 2°51.967 344.3 12.9 344 11.9
2011-08-03 05:41:09 51°18.158 2°51.957 345.1 13 344 11.9
2011-08-03 05:41:14 51°18.175 2°51.95 345.4 13 344 11.9
2011-08-03 05:41:19 51°18.192 2°51.942 345.6 13 344 11.9
2011-08-03 05:41:23 51°18.206 2°51.935 345.8 13 344 12
2011-08-03 05:41:29 51°18.227 2°51.926 345.6 13 344 12.1
2011-08-03 05:41:34 51°18.244 2°51.918 345.2 13 343 12.2
2011-08-03 05:41:39 51°18.261 2°51.909 344.8 13 343 12.2
2011-08-03 05:41:43 51°18.275 2°51.902 344.2 13 342 12.2
2011-08-03 05:41:49 51°18.295 2°51.891 343.5 13 341 12.1
2011-08-03 05:41:54 51°18.312 2°51.881 342.7 13 340 12.3
2011-08-03 05:41:59 51°18.329 2°51.872 341.9 12.9 341 12.5
2011-08-03 05:42:03 51°18.343 2°51.864 341.9 13 340 12.5
2011-08-03 05:42:08 51°18.36 2°51.854 341.9 13 341 12.5
2011-08-03 05:42:14 51°18.381 2°51.843 341.8 13 341 12.8
2011-08-03 05:42:19 51°18.398 2°51.833 342.1 13 341 13
2011-08-03 05:42:23 51°18.411 2°51.826 342.5 13 342 12.8
2011-08-03 05:42:29 51°18.432 2°51.815 342.8 13 342 13.1
2011-08-03 05:42:34 51°18.449 2°51.806 343 13 342 13
2011-08-03 05:42:39 51°18.467 2°51.798 343.2 13.1 342 13.2
2011-08-03 05:42:43 51°18.48 2°51.791 343.6 13 343 13.2
2011-08-03 05:42:49 51°18.501 2°51.781 344 13 343 13.4
2011-08-03 05:42:54 51°18.519 2°51.772 344.3 13.1 343 13.4
2011-08-03 05:42:59 51°18.536 2°51.764 344.4 13.1 343 13.6
2011-08-03 05:43:03 51°18.55 2°51.757 344.5 13 343 13.6
2011-08-03 05:43:09 51°18.57 2°51.748 344.8 13 344 13.8
2011-08-03 05:43:14 51°18.588 2°51.74 345.7 13 345 13.9
2011-08-03 05:43:19 51°18.605 2°51.733 346.7 13 346 13.9
2011-08-03 05:43:23 51°18.62 2°51.728 347.5 13 346 14
2011-08-03 05:43:29 51°18.641 2°51.719 347.7 13 346 14.2
2011-08-03 05:43:34 51°18.658 2°51.713 348.2 13 347 14.3
2011-08-03 05:43:39 51°18.676 2°51.705 347.7 13 344 14.3
2011-08-03 05:43:43 51°18.69 2°51.699 346.3 13.1 345 14.3
2011-08-03 05:43:49 51°18.711 2°51.689 346 13.1 344 14.5
2011-08-03 05:43:54 51°18.728 2°51.682 345.6 13 344 14.6
2011-08-03 05:43:59 51°18.745 2°51.673 345.4 13 343 14.8
2011-08-03 05:44:03 51°18.759 2°51.666 344.3 13 342 14.6
2011-08-03 05:44:09 51°18.78 2°51.655 343.2 13.1 341 15
2011-08-03 05:44:14 51°18.797 2°51.645 341.9 13 340 14.9
2011-08-03 05:44:19 51°18.813 2°51.634 340.6 13 338 15
2011-08-03 05:44:23 51°18.827 2°51.625 339.9 13 338 15.1
2011-08-03 05:44:28 51°18.843 2°51.615 339.6 13 338 15
2011-08-03 05:44:33 51°18.86 2°51.604 339.3 13 338 15.2
2011-08-03 05:44:39 51°18.881 2°51.591 339.6 13 339 15.2
2011-08-03 05:44:43 51°18.894 2°51.583 340.3 13 339 15.4
2011-08-03 05:44:48 51°18.911 2°51.573 340.4 13.1 339 15.3
2011-08-03 05:44:53 51°18.928 2°51.564 340.7 13.1 340 15.4
2011-08-03 05:44:59 51°18.949 2°51.552 341.5 13.1 342 15.3
2011-08-03 05:45:03 51°18.963 2°51.546 342.7 13 342 15.5
2011-08-03 05:45:08 51°18.98 2°51.537 344 13 344 15.8
2011-08-03 05:45:13 51°18.997 2°51.529 344.8 13 344 15.9
2011-08-03 05:45:19 51°19.018 2°51.52 345.3 13 344 16
2011-08-03 05:45:23 51°19.032 2°51.513 345.6 13.1 344 16
2011-08-03 05:45:28 51°19.05 2°51.505 345.7 13.1 344 16.1
2011-08-03 05:45:34 51°19.071 2°51.495 345 13.2 343 16
2011-08-03 05:45:39 51°19.088 2°51.486 344.1 13.2 342 16.1
2011-08-03 05:45:43 51°19.101 2°51.479 343.3 13.1 341 16.1
2011-08-03 05:45:49 51°19.122 2°51.467 342.3 13 340 16.2
2011-08-03 05:45:54 51°19.139 2°51.456 341 13 339 16.1
2011-08-03 05:45:59 51°19.155 2°51.446 340.3 13 339 16.3
2011-08-03 05:46:03 51°19.169 2°51.438 340.3 13 339 16.2
2011-08-03 05:46:08 51°19.186 2°51.427 339.9 13 339 16.2
2011-08-03 05:46:13 51°19.203 2°51.417 339.7 13 339 16.2
2011-08-03 05:46:19 51°19.223 2°51.405 339.8 13 340 16.2
2011-08-03 05:46:23 51°19.237 2°51.397 340.4 13 341 16.2
2011-08-03 05:46:28 51°19.254 2°51.388 341.5 13 342 16.2
2011-08-03 05:46:33 51°19.271 2°51.38 342.9 12.9 343 16.1
2011-08-03 05:46:39 51°19.292 2°51.371 344.2 12.9 344 16.2
2011-08-03 05:46:43 51°19.306 2°51.364 344.9 12.9 344 16.1
2011-08-03 05:46:48 51°19.323 2°51.357 345.3 12.9 345 16.2
2011-08-03 05:46:54 51°19.344 2°51.347 345.5 12.9 344 16.1
2011-08-03 05:46:59 51°19.361 2°51.339 345.3 12.9 344 16.1
2011-08-03 05:47:03 51°19.375 2°51.333 345.3 12.9 344 16.1
2011-08-03 05:47:08 51°19.392 2°51.325 344.8 12.8 344 15.9
2011-08-03 05:47:14 51°19.412 2°51.314 344.6 12.8 342 16
2011-08-03 05:47:19 51°19.429 2°51.306 343.7 12.9 342 16.1
2011-08-03 05:47:23 51°19.443 2°51.298 342.7 12.9 340 15.9
2011-08-03 05:47:28 51°19.459 2°51.287 341 12.9 339 16
2011-08-03 05:47:34 51°19.479 2°51.275 340.2 12.8 339 16
2011-08-03 05:47:39 51°19.496 2°51.264 339.8 12.9 338 15.9
2011-08-03 05:47:43 51°19.509 2°51.256 339.2 12.9 338 15.7
2011-08-03 05:47:48 51°19.526 2°51.246 339.3 12.9 339 15.9
2011-08-03 05:47:54 51°19.546 2°51.233 339.9 12.8 339 15.9
2011-08-03 05:47:59 51°19.563 2°51.223 340.3 12.9 340 15.6
2011-08-03 05:48:03 51°19.576 2°51.216 340.9 12.9 341 15.7
2011-08-03 05:48:09 51°19.597 2°51.205 342 12.9 342 15.6
2011-08-03 05:48:14 51°19.614 2°51.196 342.9 13 343 15.6
2011-08-03 05:48:19 51°19.631 2°51.188 343.9 13 343 15.6
2011-08-03 05:48:23 51°19.645 2°51.182 344.5 12.9 343 15.3
2011-08-03 05:48:29 51°19.666 2°51.172 345 13 344 15.2
2011-08-03 05:48:34 51°19.683 2°51.164 345.5 12.9 344 15.1
2011-08-03 05:48:39 51°19.7 2°51.156 345.6 12.9 344 14.7
2011-08-03 05:48:43 51°19.714 2°51.15 345.6 13 344 14.6
2011-08-03 05:48:48 51°19.731 2°51.141 345 13 343 14.2
2011-08-03 05:48:54 51°19.752 2°51.131 344.8 13 343 14.1
2011-08-03 05:48:59 51°19.769 2°51.123 344.8 12.9 343 13.8
2011-08-03 05:49:03 51°19.783 2°51.116 344.8 12.9 343 13.6
2011-08-03 05:49:08 51°19.8 2°51.107 344.8 13 343 13.5
2011-08-03 05:49:13 51°19.818 2°51.099 344.8 12.9 342 13.4
2011-08-03 05:49:19 51°19.838 2°51.088 344.5 12.9 342 13.3
2011-08-03 05:49:23 51°19.852 2°51.08 343.5 12.9 341 13.3
2011-08-03 05:49:28 51°19.869 2°51.07 342.1 13 339 13.3
2011-08-03 05:49:33 51°19.885 2°51.059 340.7 13 338 13.2
2011-08-03 05:49:39 51°19.905 2°51.046 339.8 13 337 13.1
2011-08-03 05:49:43 51°19.918 2°51.037 339.3 12.9 337 13.1
2011-08-03 05:49:48 51°19.935 2°51.025 338.4 12.9 336 13.2
2011-08-03 05:49:54 51°19.955 2°51.012 338.3 13 337 13.3
2011-08-03 05:49:59 51°19.971 2°51 338.3 13 337 13.5
2011-08-03 05:50:03 51°19.985 2°50.991 338.8 13 337 13.5
2011-08-03 05:50:08 51°20.001 2°50.98 338.9 13 337 13.8
2011-08-03 05:50:14 51°20.021 2°50.967 339.3 13 337 13.9
2011-08-03 05:50:19 51°20.038 2°50.956 339.5 13 338 14.2
2011-08-03 05:50:23 51°20.051 2°50.947 339.5 13 337 14.3
2011-08-03 05:50:28 51°20.068 2°50.936 339.1 13.1 337 14.5
2011-08-03 05:50:33 51°20.085 2°50.925 339.4 13 338 14.6
2011-08-03 05:50:39 51°20.105 2°50.912 339.9 13 338 14.8
2011-08-03 05:50:43 51°20.118 2°50.903 340 13 338 14.8
2011-08-03 05:50:48 51°20.135 2°50.892 340.1 13 338 14.8
2011-08-03 05:50:54 51°20.155 2°50.88 340.3 13.1 338 14.9
2011-08-03 05:50:59 51°20.172 2°50.869 340.5 13 338 14.9
2011-08-03 05:51:03 51°20.185 2°50.861 340.6 13 339 14.8
2011-08-03 05:51:08 51°20.202 2°50.85 340.7 13 339 14.8
2011-08-03 05:51:14 51°20.222 2°50.837 340.7 13 339 14.6
2011-08-03 05:51:19 51°20.239 2°50.826 340.7 13.1 338 14.7
2011-08-03 05:51:23 51°20.253 2°50.818 340.6 13.1 338 14.9
2011-08-03 05:51:29 51°20.273 2°50.805 340.5 13.1 338 15.2
2011-08-03 05:51:33 51°20.286 2°50.797 340.5 13 339 15.7
2011-08-03 05:51:39 51°20.306 2°50.784 340.6 13.1 338 15.9
2011-08-03 05:51:43 51°20.32 2°50.775 340.4 13.1 338 16
2011-08-03 05:51:49 51°20.34 2°50.762 340.4 13 338 16.2
2011-08-03 05:51:53 51°20.354 2°50.754 340.7 13.1 340 16.5
2011-08-03 05:51:58 51°20.371 2°50.745 341.6 13.1 341 16.6
2011-08-03 05:52:03 51°20.388 2°50.735 342.7 13.1 342 16.9
2011-08-03 05:52:09 51°20.409 2°50.725 343.9 13.1 343 17
2011-08-03 05:52:13 51°20.423 2°50.718 344.6 13.1 343 17.3
2011-08-03 05:52:18 51°20.44 2°50.71 345.4 13.1 345 17.5
2011-08-03 05:52:23 51°20.458 2°50.703 346.5 13.1 345 17.4
2011-08-03 05:52:29 51°20.479 2°50.694 346.6 13 345 17.9
2011-08-03 05:52:33 51°20.493 2°50.688 346.5 13 345 18.1
2011-08-03 05:52:39 51°20.514 2°50.678 346.3 13 344 18.3
2011-08-03 05:52:43 51°20.528 2°50.672 346.1 13 344 18.4
2011-08-03 05:52:48 51°20.545 2°50.664 346 13 344 18.8
2011-08-03 05:52:53 51°20.562 2°50.656 345.6 13 344 19
2011-08-03 05:52:59 51°20.583 2°50.646 345.3 13 344 19.3
2011-08-03 05:53:03 51°20.597 2°50.64 344.9 13.1 343 19.5
2011-08-03 05:53:08 51°20.614 2°50.631 344.1 13.1 342 19.7
2011-08-03 05:53:14 51°20.635 2°50.619 343.1 13.1 341 20
2011-08-03 05:53:19 51°20.652 2°50.609 342.1 13 340 20.3
2011-08-03 05:53:23 51°20.665 2°50.6 341.2 13.1 338 20.5
2011-08-03 05:53:28 51°20.682 2°50.589 340.3 13.1 338 20.7
2011-08-03 05:53:33 51°20.699 2°50.578 339.8 13.1 338 20.9
2011-08-03 05:53:39 51°20.719 2°50.565 339.2 13.1 338 21.2
2011-08-03 05:53:43 51°20.732 2°50.557 339.4 13.1 338 21.4
2011-08-03 05:53:48 51°20.749 2°50.546 339.8 13.1 339 21.7
2011-08-03 05:53:54 51°20.77 2°50.535 340.6 13.1 341 22
2011-08-03 05:53:59 51°20.787 2°50.525 342.4 13.2 342 22
2011-08-03 05:54:03 51°20.801 2°50.519 343.8 13.1 343 22.2
2011-08-03 05:54:08 51°20.819 2°50.511 344.9 13.2 344 22.5
2011-08-03 05:54:14 51°20.84 2°50.501 345.4 13.2 344 22.6
2011-08-03 05:54:19 51°20.859 2°50.494 345.6 13.2 344 22.9
2011-08-03 05:54:23 51°20.873 2°50.488 345.8 13.3 345 23
2011-08-03 05:54:28 51°20.891 2°50.48 345.8 13.2 345 23.4
2011-08-03 05:54:34 51°20.912 2°50.47 345.5 13.2 344 23.5
2011-08-03 05:54:39 51°20.929 2°50.461 344.5 13.1 342 23.6
2011-08-03 05:54:43 51°20.942 2°50.453 343 13.1 341 23.3
2011-08-03 05:54:48 51°20.959 2°50.443 341.7 13.1 339 23.6
2011-08-03 05:54:54 51°20.979 2°50.43 340.6 13.1 338 23.9
2011-08-03 05:54:59 51°20.996 2°50.419 339.7 13 338 24
2011-08-03 05:55:03 51°21.009 2°50.411 339.4 13 339 24
2011-08-03 05:55:08 51°21.026 2°50.4 339.9 13 339 24.1
2011-08-03 05:55:14 51°21.047 2°50.388 340 13 340 23.9
2011-08-03 05:55:19 51°21.064 2°50.378 340.5 13 339 24
2011-08-03 05:55:23 51°21.077 2°50.37 340.5 12.9 339 23.9
2011-08-03 05:55:28 51°21.094 2°50.36 340.3 12.9 339 24
2011-08-03 05:55:34 51°21.114 2°50.347 339.8 13 339 24.1
2011-08-03 05:55:39 51°21.131 2°50.337 339.8 13 339 23.8
2011-08-03 05:55:43 51°21.145 2°50.329 340.3 13 340 24
2011-08-03 05:55:48 51°21.162 2°50.32 340.5 13 340 23.9
2011-08-03 05:55:54 51°21.183 2°50.309 341.2 13.1 342 24.1
2011-08-03 05:55:59 51°21.201 2°50.3 343.3 13.1 344 24
2011-08-03 05:56:03 51°21.214 2°50.294 344.7 13.1 345 23.7
2011-08-03 05:56:08 51°21.232 2°50.287 346.1 13.1 346 23.9
2011-08-03 05:56:13 51°21.249 2°50.28 347.5 13.1 347 24.1
2011-08-03 05:56:19 51°21.27 2°50.273 348.9 13.1 348 24.1
2011-08-03 05:56:23 51°21.285 2°50.268 349.3 13.1 348 24.1
2011-08-03 05:56:29 51°21.306 2°50.261 349.9 13.1 349 23.8
2011-08-03 05:56:34 51°21.324 2°50.255 350.1 13.1 348 23.9
2011-08-03 05:56:38 51°21.338 2°50.25 349.7 13.1 348 23.8
2011-08-03 05:56:43 51°21.355 2°50.243 348.7 13.1 347 23.7
2011-08-03 05:56:49 51°21.376 2°50.235 348.1 13.1 347 23.6
2011-08-03 05:56:54 51°21.394 2°50.228 347.7 13.1 346 23.5
2011-08-03 05:56:58 51°21.408 2°50.222 347.2 13.1 346 23.3
2011-08-03 05:57:03 51°21.425 2°50.215 347 13.1 345 23.4
2011-08-03 05:57:09 51°21.446 2°50.205 346.6 13.1 344 23.4
2011-08-03 05:57:14 51°21.464 2°50.197 345.9 13.1 344 23.2
2011-08-03 05:57:19 51°21.481 2°50.189 345.1 13 343 23.3
2011-08-03 05:57:23 51°21.495 2°50.182 344.6 13.1 343 23.2
2011-08-03 05:57:29 51°21.516 2°50.172 344.1 13.1 343 23.2
2011-08-03 05:57:34 51°21.533 2°50.163 343.9 13.1 343 23.1
2011-08-03 05:57:39 51°21.551 2°50.155 344 13.1 343 23.1
2011-08-03 05:57:43 51°21.564 2°50.148 344.1 13.1 343 23.1
2011-08-03 05:57:48 51°21.582 2°50.14 344.4 13.1 344 22.9
2011-08-03 05:57:54 51°21.603 2°50.13 344.6 13.1 343 22.9
2011-08-03 05:57:59 51°21.621 2°50.122 344.7 13.2 344 22.9
2011-08-03 05:58:03 51°21.635 2°50.116 345.1 13.2 345 22.8
2011-08-03 05:58:08 51°21.653 2°50.109 346.2 13.2 346 22.9
2011-08-03 05:58:13 51°21.671 2°50.102 347.3 13.1 347 22.8
2011-08-03 05:58:19 51°21.692 2°50.095 348.5 13.2 348 22.8
2011-08-03 05:58:23 51°21.706 2°50.09 349.2 13.2 348 22.7
2011-08-03 05:58:29 51°21.727 2°50.083 349.4 13.2 348 22.9
2011-08-03 05:58:33 51°21.742 2°50.078 349.6 13.1 348 22.8
2011-08-03 05:58:39 51°21.763 2°50.071 350.1 13.1 349 23
2011-08-03 05:58:43 51°21.777 2°50.066 350 13.1 348 22.9
2011-08-03 05:58:48 51°21.795 2°50.06 349.9 13.2 348 22.9
2011-08-03 05:58:53 51°21.813 2°50.054 349.5 13.2 347 23.1
2011-08-03 05:58:59 51°21.835 2°50.046 349.1 13.2 347 23.1
2011-08-03 05:59:03 51°21.849 2°50.04 348.8 13.1 346 23.1
2011-08-03 05:59:08 51°21.866 2°50.033 348.2 13.2 346 23.2
2011-08-03 05:59:13 51°21.884 2°50.025 347.4 13.1 344 23.4
2011-08-03 05:59:19 51°21.905 2°50.016 346.3 13.1 344 23.2
2011-08-03 05:59:23 51°21.919 2°50.009 345.4 13.1 343 23.3
2011-08-03 05:59:28 51°21.936 2°50 344.3 13.1 342 23.4
2011-08-03 05:59:33 51°21.953 2°49.991 343.8 13.1 342 23.5
2011-08-03 05:59:39 51°21.974 2°49.981 343.3 13.1 342 23.5
2011-08-03 05:59:43 51°21.988 2°49.974 343.4 13.1 343 23.8
2011-08-03 05:59:49 51°22.009 2°49.964 343.8 13.2 343 23.7
2011-08-03 05:59:54 51°22.027 2°49.956 344.5 13.2 343 23.9
2011-08-03 05:59:59 51°22.044 2°49.947 344.8 13.2 343 23.9
2011-08-03 06:00:03 51°22.059 2°49.941 345.1 13.2 344 24
2011-08-03 06:00:08 51°22.076 2°49.933 345.9 13.2 345 23.9
2011-08-03 06:00:14 51°22.097 2°49.924 347 13.1 346 23.9
2011-08-03 06:00:19 51°22.115 2°49.917 347.8 13.2 347 24
2011-08-03 06:00:23 51°22.129 2°49.912 348.5 13.2 347 23.9
2011-08-03 06:00:28 51°22.147 2°49.906 348.9 13.1 348 23.9
2011-08-03 06:00:34 51°22.168 2°49.898 349.4 13.1 347 24.2
2011-08-03 06:00:39 51°22.186 2°49.892 349.5 13.1 347 24.1
2011-08-03 06:00:43 51°22.2 2°49.887 349.3 13.1 347 24
2011-08-03 06:00:48 51°22.218 2°49.88 348.9 13.1 347 23.9
2011-08-03 06:00:54 51°22.239 2°49.872 349 13.1 347 23.5
2011-08-03 06:00:59 51°22.257 2°49.865 348.7 13.1 346 23.5
2011-08-03 06:01:03 51°22.271 2°49.86 348.1 13.1 346 23.7
2011-08-03 06:01:08 51°22.288 2°49.852 347.3 13.1 344 23.6
2011-08-03 06:01:14 51°22.309 2°49.842 346 13.1 343 23.6
2011-08-03 06:01:19 51°22.327 2°49.833 344.6 13.1 342 23.8
2011-08-03 06:01:23 51°22.341 2°49.826 343.8 13.1 342 24
2011-08-03 06:01:28 51°22.358 2°49.817 343.4 13.1 342 24.1
2011-08-03 06:01:34 51°22.378 2°49.806 343 13.1 342 24.1
2011-08-03 06:01:39 51°22.395 2°49.797 342.7 13.1 341 24
2011-08-03 06:01:43 51°22.409 2°49.789 342.7 13 341 23.9
2011-08-03 06:01:48 51°22.426 2°49.78 342.7 13 341 23.9
2011-08-03 06:01:54 51°22.447 2°49.77 343.1 13.1 343 23.6
2011-08-03 06:01:59 51°22.464 2°49.761 343.5 13.1 342 22.9
2011-08-03 06:02:03 51°22.478 2°49.754 344 13.1 343 22.1
2011-08-03 06:02:08 51°22.495 2°49.745 344.2 13.1 343 22
2011-08-03 06:02:13 51°22.513 2°49.737 344.4 13.1 344 21
2011-08-03 06:02:19 51°22.534 2°49.728 345.3 13.1 345 20.8
2011-08-03 06:02:23 51°22.548 2°49.723 346.4 13.1 346 21.3
2011-08-03 06:02:29 51°22.569 2°49.715 347.7 13.1 347 21.9
2011-08-03 06:02:34 51°22.587 2°49.709 348.5 13.1 348 21.4
2011-08-03 06:02:39 51°22.605 2°49.703 349.2 13.1 348 20.9
2011-08-03 06:02:43 51°22.619 2°49.698 349.3 13.1 348 20.3
2011-08-03 06:02:49 51°22.64 2°49.691 349.6 13.1 348 19.5
2011-08-03 06:02:53 51°22.654 2°49.686 349.3 13.1 348 19
2011-08-03 06:02:59 51°22.676 2°49.678 348.8 13.1 347 18.4
2011-08-03 06:03:03 51°22.69 2°49.672 348.1 13.1 346 17.1
2011-08-03 06:03:09 51°22.711 2°49.664 347.7 13.1 346 17.1
2011-08-03 06:03:13 51°22.725 2°49.659 347.7 13.1 347 17.8
2011-08-03 06:03:18 51°22.743 2°49.652 347.9 13.2 346 17.3
2011-08-03 06:03:23 51°22.76 2°49.644 347.7 13.2 346 16
2011-08-03 06:03:29 51°22.782 2°49.635 346.8 13.2 345 13.6
2011-08-03 06:03:34 51°22.799 2°49.627 345.5 13.1 343 15.6
2011-08-03 06:03:38 51°22.813 2°49.62 344.5 13.1 343 16.7
2011-08-03 06:03:43 51°22.83 2°49.611 344.1 13.2 342 16.8
2011-08-03 06:03:49 51°22.851 2°49.6 343.4 13.2 342 16.1
2011-08-03 06:03:54 51°22.868 2°49.592 343.3 13.2 342 16.9
2011-08-03 06:03:58 51°22.882 2°49.584 343.2 13.1 342 16.9
2011-08-03 06:04:03 51°22.9 2°49.575 343.5 13.1 342 15.4
2011-08-03 06:04:09 51°22.92 2°49.565 343.8 13.1 342 15
2011-08-03 06:04:14 51°22.938 2°49.556 343.3 13.1 342 16.2
2011-08-03 06:04:19 51°22.956 2°49.548 343.8 13.2 344 16.6
2011-08-03 06:04:23 51°22.97 2°49.541 344.8 13.2 344 17.2
2011-08-03 06:04:29 51°22.991 2°49.533 346 13.2 346 17.3
2011-08-03 06:04:34 51°23.008 2°49.525 346.7 13.2 345 17.1
2011-08-03 06:04:39 51°23.026 2°49.518 347.3 13.2 346 16.3
2011-08-03 06:04:43 51°23.041 2°49.512 347.5 13.2 346 14.3
2011-08-03 06:04:48 51°23.058 2°49.505 347.7 13.2 347 16.3
2011-08-03 06:04:54 51°23.08 2°49.496 347.6 13.2 346 17.4
2011-08-03 06:04:59 51°23.097 2°49.49 347.3 13.3 346 17.7
2011-08-03 06:05:03 51°23.112 2°49.484 347.4 13.3 346 18.1
2011-08-03 06:05:08 51°23.13 2°49.477 347.4 13.3 347 18.8
2011-08-03 06:05:13 51°23.148 2°49.47 347.6 13.3 345 19.2
2011-08-03 06:05:19 51°23.169 2°49.461 346.9 13.2 345 19.4
2011-08-03 06:05:23 51°23.183 2°49.454 345.9 13.2 344 19.1
2011-08-03 06:05:28 51°23.2 2°49.446 344.8 13.2 343 19.4
2011-08-03 06:05:33 51°23.218 2°49.437 343.5 13.2 342 20
2011-08-03 06:05:39 51°23.239 2°49.425 342.5 13.2 341 20.4
2011-08-03 06:05:43 51°23.253 2°49.417 341.4 13.2 340 20.5
2011-08-03 06:05:49 51°23.273 2°49.405 341.1 13.2 340 20.5
2011-08-03 06:05:54 51°23.29 2°49.395 340.8 13.2 340 20.3
2011-08-03 06:05:59 51°23.307 2°49.385 340.7 13.2 340 20
2011-08-03 06:06:03 51°23.321 2°49.377 341.1 13.2 341 20.3
2011-08-03 06:06:09 51°23.342 2°49.366 342.1 13.2 342 20.5
2011-08-03 06:06:14 51°23.36 2°49.357 342.9 13.2 343 19.6
2011-08-03 06:06:19 51°23.378 2°49.349 343.8 13.3 344 20.3
2011-08-03 06:06:23 51°23.392 2°49.343 344.8 13.3 345 21
2011-08-03 06:06:29 51°23.413 2°49.334 346.1 13.2 346 21.2
2011-08-03 06:06:34 51°23.431 2°49.327 346.6 13.2 346 21.3
2011-08-03 06:06:39 51°23.449 2°49.32 346.6 13.3 346 21.6
2011-08-03 06:06:43 51°23.463 2°49.314 346.5 13.2 345 21.6
2011-08-03 06:06:48 51°23.48 2°49.306 345.9 13.2 345 21.6
2011-08-03 06:06:54 51°23.501 2°49.297 345.4 13.2 344 22.1
2011-08-03 06:06:59 51°23.519 2°49.289 344.8 13.1 344 22.3
2011-08-03 06:07:03 51°23.533 2°49.282 344.2 13.1 343 22
2011-08-03 06:07:08 51°23.55 2°49.272 343.1 13.2 342 21.3
2011-08-03 06:07:14 51°23.571 2°49.261 342.2 13.2 341 20.9
2011-08-03 06:07:19 51°23.588 2°49.252 341.7 13.1 341 21.9
2011-08-03 06:07:23 51°23.602 2°49.244 341.7 13.1 341 22.5
2011-08-03 06:07:28 51°23.619 2°49.235 341.6 13.1 341 22.6
2011-08-03 06:07:33 51°23.636 2°49.225 341.3 13.1 341 22.9
2011-08-03 06:07:39 51°23.657 2°49.213 341.3 13.1 340 23
2011-08-03 06:07:43 51°23.671 2°49.205 341.3 13.1 340 22.7
2011-08-03 06:07:48 51°23.688 2°49.195 341.3 13.1 340 23
2011-08-03 06:07:54 51°23.708 2°49.184 341.7 13.1 340 23.1
2011-08-03 06:07:59 51°23.726 2°49.174 341.9 13.1 341 23.2
2011-08-03 06:08:03 51°23.739 2°49.166 342 13.1 341 23.4
2011-08-03 06:08:08 51°23.756 2°49.156 341.9 13.1 340 23.3
2011-08-03 06:08:14 51°23.777 2°49.145 341.6 13.1 340 22.3
2011-08-03 06:08:19 51°23.794 2°49.135 341.7 13.1 340 22.2
2011-08-03 06:08:23 51°23.808 2°49.127 341.9 13.1 340 22.7
2011-08-03 06:08:28 51°23.825 2°49.118 342.2 13.1 342 22.8
2011-08-03 06:08:34 51°23.846 2°49.108 342.9 13.2 343 22.7
2011-08-03 06:08:39 51°23.863 2°49.099 343.9 13.2 343 22.1
2011-08-03 06:08:43 51°23.877 2°49.093 345.2 13.2 345 22.3
2011-08-03 06:08:48 51°23.895 2°49.086 347 13.2 346 22.7
2011-08-03 06:08:54 51°23.917 2°49.078 347.6 13.2 346 22.8
2011-08-03 06:08:59 51°23.935 2°49.071 347.9 13.2 347 23.3
2011-08-03 06:09:03 51°23.949 2°49.066 348.1 13.2 347 23.4
2011-08-03 06:09:08 51°23.967 2°49.059 347.8 13.3 346 23.2
2011-08-03 06:09:14 51°23.988 2°49.05 346.8 13.2 345 23.2
2011-08-03 06:09:19 51°24.005 2°49.041 346 13.2 343 23.2
2011-08-03 06:09:23 51°24.019 2°49.034 344.8 13.2 342 23
2011-08-03 06:09:28 51°24.036 2°49.025 343.5 13.1 341 23.3
2011-08-03 06:09:33 51°24.054 2°49.015 342.8 13.1 341 23.4
2011-08-03 06:09:39 51°24.074 2°49.003 342.8 13.1 340 23.1
2011-08-03 06:09:43 51°24.088 2°48.995 342.1 13.1 339 23.2
2011-08-03 06:09:48 51°24.105 2°48.985 341.9 13.1 339 23.2
2011-08-03 06:09:53 51°24.122 2°48.975 341.7 13.1 340 23.4
2011-08-03 06:09:59 51°24.142 2°48.962 341.6 13.1 339 23.3
2011-08-03 06:10:03 51°24.156 2°48.955 342.5 13.1 343 23.3
2011-08-03 06:10:08 51°24.174 2°48.947 345 13.1 344 23.5
2011-08-03 06:10:13 51°24.191 2°48.94 346.8 13 346 23.4
2011-08-03 06:10:19 51°24.212 2°48.932 348.3 13 347 22.6
2011-08-03 06:10:23 51°24.226 2°48.928 349.9 13 348 23.2
2011-08-03 06:10:29 51°24.248 2°48.921 351 13 348 23.5
2011-08-03 06:10:34 51°24.265 2°48.916 351.5 13 350 23.7
2011-08-03 06:10:39 51°24.283 2°48.91 352.3 12.9 349 23.5
2011-08-03 06:10:43 51°24.297 2°48.907 352.9 12.9 350 23.4
2011-08-03 06:10:49 51°24.318 2°48.9 353.4 13 349 23.6
2011-08-03 06:10:54 51°24.336 2°48.895 352.7 12.9 349 23.3
2011-08-03 06:10:59 51°24.354 2°48.89 352.6 13 349 23.3
2011-08-03 06:11:03 51°24.368 2°48.885 352.4 13 349 22.9
2011-08-03 06:11:08 51°24.386 2°48.879 351.7 13.1 348 22.7
2011-08-03 06:11:14 51°24.407 2°48.871 351 13 347 22.5
2011-08-03 06:11:19 51°24.425 2°48.865 350.7 13.1 347 22.4
2011-08-03 06:11:23 51°24.439 2°48.86 350.5 13.1 347 22
2011-08-03 06:11:28 51°24.457 2°48.854 350.1 13.1 347 21.1
2011-08-03 06:11:33 51°24.474 2°48.847 350 13.1 347 21.5
2011-08-03 06:11:39 51°24.495 2°48.839 349.6 13.1 346 21.3
2011-08-03 06:11:43 51°24.509 2°48.833 349.2 13 346 21.4
2011-08-03 06:11:48 51°24.527 2°48.826 348.9 13 345 21.6
2011-08-03 06:11:53 51°24.544 2°48.819 348.5 13.1 346 21.6
2011-08-03 06:11:59 51°24.565 2°48.81 348.3 13.1 346 21.3
2011-08-03 06:12:03 51°24.58 2°48.805 348.5 13.1 346 21.2
2011-08-03 06:12:08 51°24.597 2°48.799 349.6 13.1 348 21.1
2011-08-03 06:12:14 51°24.619 2°48.792 350.5 13.1 348 21.2
2011-08-03 06:12:19 51°24.636 2°48.786 351.8 13.1 350 21.5
2011-08-03 06:12:23 51°24.651 2°48.782 352.3 13.1 349 21.5
2011-08-03 06:12:28 51°24.669 2°48.777 352.6 13.2 350 22.1
2011-08-03 06:12:34 51°24.69 2°48.771 353.1 13.1 351 22.1
2011-08-03 06:12:39 51°24.708 2°48.767 353.6 13.1 351 22.4
2011-08-03 06:12:43 51°24.723 2°48.764 354.6 13.1 352 21.9
2011-08-03 06:12:48 51°24.741 2°48.76 355.3 13.1 352 21.9
2011-08-03 06:12:54 51°24.762 2°48.756 355.6 13.1 353 23.3
2011-08-03 06:12:59 51°24.78 2°48.752 355.8 13.1 352 23.3
2011-08-03 06:13:03 51°24.795 2°48.748 355.2 13.1 351 23.7
2011-08-03 06:13:08 51°24.813 2°48.744 354.8 13.1 351 23.8
2011-08-03 06:13:14 51°24.834 2°48.738 354.4 13.1 350 24.3
2011-08-03 06:13:19 51°24.852 2°48.733 353.6 13.1 350 24.3
2011-08-03 06:13:23 51°24.867 2°48.729 353.2 13.1 350 24.8
2011-08-03 06:13:28 51°24.884 2°48.723 353 13.1 350 24.9
2011-08-03 06:13:34 51°24.906 2°48.717 352.8 13.1 349 24.9
2011-08-03 06:13:39 51°24.924 2°48.711 352.4 13.1 349 25.2
2011-08-03 06:13:43 51°24.938 2°48.706 351.5 13.1 348 25.1
2011-08-03 06:13:47 51°24.952 2°48.701 350.7 13.1 347 25.4
2011-08-03 06:13:54 51°24.977 2°48.692 349.5 13 346 25.6
2011-08-03 06:13:59 51°24.994 2°48.684 349.3 13.1 346 25.8
2011-08-03 06:14:03 51°25.008 2°48.678 348.6 13 345 26
2011-08-03 06:14:08 51°25.025 2°48.671 348.5 13 345 26.2
2011-08-03 06:14:13 51°25.043 2°48.664 348.5 13.1 346 26.2
2011-08-03 06:14:19 51°25.064 2°48.656 349.2 13.1 347 26.3
2011-08-03 06:14:23 51°25.078 2°48.65 349.9 13.1 347 26.3
2011-08-03 06:14:28 51°25.096 2°48.644 350.4 13.1 348 26.7
2011-08-03 06:14:33 51°25.114 2°48.638 351.2 13.1 349 26.9
2011-08-03 06:14:39 51°25.135 2°48.632 352.2 13.1 350 27.1
2011-08-03 06:14:43 51°25.15 2°48.629 353.6 13.1 351 27.4
2011-08-03 06:14:48 51°25.168 2°48.624 354.5 13.1 351 27.6
2011-08-03 06:14:53 51°25.186 2°48.621 355 13.1 353 27.7
2011-08-03 06:14:59 51°25.207 2°48.616 355.5 13.2 352 27.9
2011-08-03 06:15:03 51°25.222 2°48.613 355.6 13.2 352 28
2011-08-03 06:15:08 51°25.24 2°48.608 355.3 13.2 351 28.5
2011-08-03 06:15:14 51°25.262 2°48.603 354.9 13.2 352 28.8
2011-08-03 06:15:19 51°25.28 2°48.599 354.9 13.2 352 29.1
2011-08-03 06:15:23 51°25.294 2°48.595 355 13.1 351 29.3
2011-08-03 06:15:28 51°25.312 2°48.591 354.8 13.2 351 29.4
2011-08-03 06:15:34 51°25.334 2°48.585 354.8 13.2 351 29.5
2011-08-03 06:15:39 51°25.352 2°48.58 354.3 13.1 350 29.3
2011-08-03 06:15:43 51°25.366 2°48.576 353.2 13.2 349 29.3
2011-08-03 06:15:48 51°25.384 2°48.569 352 13.2 347 29.1
2011-08-03 06:15:54 51°25.406 2°48.561 350.7 13.2 347 29
2011-08-03 06:15:59 51°25.423 2°48.554 350.1 13.2 346 28.7
2011-08-03 06:16:03 51°25.437 2°48.549 349.3 13.2 347 28.3
2011-08-03 06:16:08 51°25.455 2°48.542 349.4 13.2 347 27.9
2011-08-03 06:16:13 51°25.473 2°48.536 349.7 13.2 348 27.4
2011-08-03 06:16:19 51°25.495 2°48.528 350.1 13.2 348 26.6
2011-08-03 06:16:23 51°25.509 2°48.523 350.2 13.2 347 25.3
2011-08-03 06:16:28 51°25.527 2°48.517 350.2 13.3 347 24.7
2011-08-03 06:16:34 51°25.548 2°48.509 349.9 13.3 348 24.6
2011-08-03 06:16:39 51°25.566 2°48.504 350.5 13.2 349 24.4
2011-08-03 06:16:43 51°25.581 2°48.5 351.8 13.2 350 24.3
2011-08-03 06:16:48 51°25.599 2°48.495 352.8 13.2 351 24.2
2011-08-03 06:16:54 51°25.621 2°48.49 353.8 13.3 352 24.2
2011-08-03 06:16:59 51°25.639 2°48.486 354.5 13.3 352 24.1
2011-08-03 06:17:03 51°25.654 2°48.483 355.3 13.3 353 24.1
2011-08-03 06:17:08 51°25.672 2°48.479 355.5 13.2 352 24
2011-08-03 06:17:14 51°25.693 2°48.475 355.2 13.2 352 24
2011-08-03 06:17:19 51°25.712 2°48.47 354.8 13.3 352 24.1
2011-08-03 06:17:23 51°25.726 2°48.467 354.3 13.3 351 24
2011-08-03 06:17:29 51°25.748 2°48.461 353.5 13.3 350 23.9
2011-08-03 06:17:34 51°25.766 2°48.455 352.7 13.3 349 23.9
2011-08-03 06:17:39 51°25.784 2°48.449 351.8 13.3 349 24
2011-08-03 06:17:43 51°25.799 2°48.444 350.8 13.3 348 24
2011-08-03 06:17:48 51°25.817 2°48.438 350.3 13.3 348 23.8
2011-08-03 06:17:54 51°25.838 2°48.43 349.5 13.3 347 23.8
2011-08-03 06:17:59 51°25.856 2°48.423 349.2 13.3 347 23.9
2011-08-03 06:18:03 51°25.871 2°48.417 349.1 13.3 347 23.7
2011-08-03 06:18:08 51°25.889 2°48.411 349.2 13.3 348 23.7
2011-08-03 06:18:14 51°25.911 2°48.404 349.9 13.4 348 23.8
2011-08-03 06:18:19 51°25.929 2°48.398 349.9 13.3 348 23.7
2011-08-03 06:18:23 51°25.943 2°48.393 350.1 13.4 348 23.9
2011-08-03 06:18:28 51°25.962 2°48.387 350.5 13.4 350 23.6
2011-08-03 06:18:33 51°25.98 2°48.383 351.8 13.4 351 23.7
2011-08-03 06:18:39 51°26.002 2°48.378 353.3 13.4 352 23.6
2011-08-03 06:18:43 51°26.017 2°48.375 354.2 13.4 352 23.6
2011-08-03 06:18:48 51°26.035 2°48.371 354.7 13.4 352 23.6
2011-08-03 06:18:53 51°26.054 2°48.366 354.4 13.4 351 21.7
2011-08-03 06:18:59 51°26.076 2°48.36 352.9 13.4 350 23.9
2011-08-03 06:19:03 51°26.09 2°48.356 351.9 13.4 350 23.4
2011-08-03 06:19:08 51°26.109 2°48.35 351 13.5 348 21.9
2011-08-03 06:19:14 51°26.13 2°48.342 350 13.5 348 23.4
2011-08-03 06:19:19 51°26.149 2°48.335 349.1 13.5 347 22.8
2011-08-03 06:19:23 51°26.163 2°48.33 348.2 13.4 346 21
2011-08-03 06:19:28 51°26.181 2°48.322 347.3 13.4 345 21.7
2011-08-03 06:19:34 51°26.203 2°48.313 346.5 13.4 345 21.7
2011-08-03 06:19:39 51°26.221 2°48.305 346.3 13.5 345 20.9
2011-08-03 06:19:43 51°26.235 2°48.299 346.3 13.4 345 21.9
2011-08-03 06:19:48 51°26.253 2°48.291 346.6 13.4 345 21.3
2011-08-03 06:19:54 51°26.274 2°48.282 346.7 13.4 345 19.5
2011-08-03 06:19:59 51°26.292 2°48.275 346.9 13.4 345 19.2
2011-08-03 06:20:03 51°26.307 2°48.269 347.1 13.4 346 19.2
2011-08-03 06:20:08 51°26.325 2°48.262 347.6 13.4 346 19.7
2011-08-03 06:20:14 51°26.346 2°48.254 348.1 13.4 346 20.9
2011-08-03 06:20:19 51°26.364 2°48.247 348.5 13.3 347 21.6
2011-08-03 06:20:23 51°26.379 2°48.242 349 13.4 347 22.7
2011-08-03 06:20:28 51°26.397 2°48.235 349.1 13.3 347 22.8
2011-08-03 06:20:33 51°26.415 2°48.229 349.6 13.3 348 22.5
2011-08-03 06:20:39 51°26.436 2°48.222 350.4 13.3 349 22.9
2011-08-03 06:20:43 51°26.451 2°48.218 351.7 13.3 350 23
2011-08-03 06:20:48 51°26.469 2°48.212 352.1 13.3 349 22.8
2011-08-03 06:20:53 51°26.487 2°48.207 352.3 13.3 350 22.9
2011-08-03 06:20:59 51°26.509 2°48.2 352.1 13.2 348 22.7
2011-08-03 06:21:03 51°26.523 2°48.196 351.3 13.2 349 22.8
2011-08-03 06:21:08 51°26.541 2°48.19 351.4 13.2 348 22.8
2011-08-03 06:21:14 51°26.563 2°48.182 351 13.2 348 23
2011-08-03 06:21:19 51°26.581 2°48.176 350.5 13.2 347 22.9
2011-08-03 06:21:23 51°26.595 2°48.17 350 13.2 347 22.9
2011-08-03 06:21:29 51°26.616 2°48.162 349.4 13.2 347 23.3
2011-08-03 06:21:34 51°26.634 2°48.156 349.5 13.2 347 23.4
2011-08-03 06:21:39 51°26.652 2°48.149 349.3 13.2 346 23
2011-08-03 06:21:43 51°26.666 2°48.143 348.8 13.2 346 23.2
2011-08-03 06:21:49 51°26.687 2°48.134 348.2 13.2 346 23.3
2011-08-03 06:21:54 51°26.705 2°48.126 347.7 13.3 345 22.8
2011-08-03 06:21:59 51°26.723 2°48.118 346.8 13.2 344 22.5
2011-08-03 06:22:03 51°26.737 2°48.112 346.5 13.3 344 23.3
2011-08-03 06:22:09 51°26.758 2°48.103 346.5 13.3 344 24
2011-08-03 06:22:14 51°26.776 2°48.095 346.5 13.3 345 24.2
2011-08-03 06:22:19 51°26.794 2°48.087 346.7 13.3 345 24.2
2011-08-03 06:22:23 51°26.808 2°48.081 346.7 13.3 345 24.4
2011-08-03 06:22:28 51°26.826 2°48.073 346.7 13.3 345 24.7
2011-08-03 06:22:34 51°26.847 2°48.064 347 13.3 346 24
2011-08-03 06:22:39 51°26.865 2°48.057 347.7 13.3 347 24.3
2011-08-03 06:22:43 51°26.88 2°48.052 348.9 13.3 347 24.7
2011-08-03 06:22:48 51°26.898 2°48.046 350.1 13.2 348 24.7
2011-08-03 06:22:53 51°26.916 2°48.04 350.7 13.2 348 25.3
2011-08-03 06:22:59 51°26.937 2°48.033 351.3 13.2 348 24.7
2011-08-03 06:23:03 51°26.951 2°48.028 351.8 13.2 349 25.6
2011-08-03 06:23:08 51°26.969 2°48.023 352.1 13.2 350 25.5
2011-08-03 06:23:13 51°26.987 2°48.018 352.6 13.2 350 24.7
2011-08-03 06:23:19 51°27.009 2°48.012 353.3 13.2 351 26.2
2011-08-03 06:23:23 51°27.023 2°48.008 353.4 13.1 351 26.5
2011-08-03 06:23:28 51°27.041 2°48.003 353.5 13.1 350 26.1
2011-08-03 06:23:34 51°27.063 2°47.997 352.8 13.1 349 24.7
2011-08-03 06:23:39 51°27.08 2°47.99 351.5 13.1 347 25.1
2011-08-03 06:23:43 51°27.094 2°47.985 350.2 13.1 346 26.4
2011-08-03 06:23:48 51°27.112 2°47.977 348.9 13 345 25.9
2011-08-03 06:23:54 51°27.133 2°47.967 347.6 13.1 343 25.7
2011-08-03 06:23:59 51°27.15 2°47.958 346.3 13.1 343 25.3
2011-08-03 06:24:03 51°27.164 2°47.951 345.5 13.1 342 26.2
2011-08-03 06:24:08 51°27.181 2°47.942 344.8 13.2 342 26.2
2011-08-03 06:24:14 51°27.202 2°47.931 344.8 13.2 342 25.7
2011-08-03 06:24:19 51°27.219 2°47.922 344.4 13.2 342 26.4
2011-08-03 06:24:23 51°27.233 2°47.915 344.4 13.1 342 26.9
2011-08-03 06:24:28 51°27.251 2°47.906 344.4 13.2 343 26.8
2011-08-03 06:24:34 51°27.271 2°47.896 344.8 13.1 343 27
2011-08-03 06:24:39 51°27.289 2°47.887 345 13.2 343 27.1
2011-08-03 06:24:43 51°27.303 2°47.88 345.3 13.2 343 26.4
2011-08-03 06:24:47 51°27.317 2°47.873 345.4 13.2 343 26.3
2011-08-03 06:24:54 51°27.342 2°47.862 345.9 13.2 344 26.3
2011-08-03 06:24:59 51°27.36 2°47.855 347 13.2 345 26.4
2011-08-03 06:25:03 51°27.374 2°47.849 347.6 13.2 346 26.2
2011-08-03 06:25:08 51°27.392 2°47.842 348.7 13.3 347 26.8
2011-08-03 06:25:13 51°27.41 2°47.836 349.6 13.2 347 27.1
2011-08-03 06:25:19 51°27.431 2°47.829 350.5 13.2 349 27.2
2011-08-03 06:25:23 51°27.445 2°47.825 351.7 13.1 349 27.1
2011-08-03 06:25:28 51°27.463 2°47.819 352 13.1 349 27
2011-08-03 06:25:33 51°27.481 2°47.813 352.2 13.2 350 27.1
2011-08-03 06:25:39 51°27.503 2°47.807 352.7 13.2 350 27.1
2011-08-03 06:25:43 51°27.517 2°47.803 352.9 13.2 350 27
2011-08-03 06:25:48 51°27.535 2°47.798 353 13.2 350 26.9
2011-08-03 06:25:53 51°27.553 2°47.792 353 13.2 349 27
2011-08-03 06:25:59 51°27.574 2°47.785 352.3 13.2 348 26.8
2011-08-03 06:26:03 51°27.589 2°47.78 351.4 13.2 348 27.2
2011-08-03 06:26:08 51°27.606 2°47.774 350.3 13.2 347 27.3
2011-08-03 06:26:13 51°27.624 2°47.767 349.6 13.2 346 27.4
2011-08-03 06:26:19 51°27.646 2°47.759 349.2 13.2 346 27.5
2011-08-03 06:26:23 51°27.66 2°47.753 348.8 13.2 346 27.6
2011-08-03 06:26:28 51°27.678 2°47.746 349.2 13.2 346 27.5
2011-08-03 06:26:34 51°27.699 2°47.738 349.4 13.2 346 27.6
2011-08-03 06:26:39 51°27.717 2°47.73 349.2 13.2 346 27.7
2011-08-03 06:26:43 51°27.731 2°47.725 348.8 13.2 346 27.8
2011-08-03 06:26:48 51°27.749 2°47.718 348.7 13.2 346 27.9
2011-08-03 06:26:54 51°27.77 2°47.71 349 13.2 347 28
2011-08-03 06:26:59 51°27.788 2°47.703 349.2 13.2 347 28.8
2011-08-03 06:27:03 51°27.802 2°47.698 349.8 13.1 347 29.2
2011-08-03 06:27:08 51°27.82 2°47.692 350.4 13.1 348 29.5
2011-08-03 06:27:14 51°27.841 2°47.685 351 13.1 348 29.3
2011-08-03 06:27:19 51°27.859 2°47.679 351.7 13.1 349 29.3
2011-08-03 06:27:23 51°27.873 2°47.675 351.9 13.2 349 29.7
2011-08-03 06:27:28 51°27.891 2°47.669 352.1 13.1 349 30
2011-08-03 06:27:34 51°27.913 2°47.663 352.1 13.2 349 30.4
2011-08-03 06:27:39 51°27.931 2°47.657 351.8 13.1 349 30.2
2011-08-03 06:27:43 51°27.945 2°47.652 351.5 13.2 349 30.5
2011-08-03 06:27:48 51°27.963 2°47.646 351.2 13.2 348 30.7
2011-08-03 06:27:54 51°27.984 2°47.639 351.1 13.2 348 30.8
2011-08-03 06:27:59 51°28.002 2°47.632 350.7 13.2 347 30.3
2011-08-03 06:28:03 51°28.016 2°47.627 349.7 13.2 347 30.7
2011-08-03 06:28:08 51°28.034 2°47.619 348.6 13.2 345 31.2
2011-08-03 06:28:14 51°28.055 2°47.61 347.3 13.2 345 31.4
2011-08-03 06:28:19 51°28.073 2°47.602 346.8 13.1 344 31.5
2011-08-03 06:28:23 51°28.087 2°47.595 346.1 13.1 344 31.5
2011-08-03 06:28:28 51°28.104 2°47.587 346 13.2 344 31.6
2011-08-03 06:28:34 51°28.125 2°47.577 345.7 13.2 344 31.7
2011-08-03 06:28:39 51°28.143 2°47.57 346.4 13.2 345 32.2
2011-08-03 06:28:43 51°28.157 2°47.564 347.1 13.2 345 32.9
2011-08-03 06:28:49 51°28.178 2°47.554 347.3 13.2 345 32.9
2011-08-03 06:28:54 51°28.196 2°47.547 347.2 13.2 345 33.1
2011-08-03 06:28:59 51°28.214 2°47.539 347.4 13.2 345 32.9
2011-08-03 06:29:03 51°28.228 2°47.534 347.8 13.2 346 32.5
2011-08-03 06:29:08 51°28.246 2°47.527 348.5 13.2 346 32.4
2011-08-03 06:29:14 51°28.267 2°47.519 348.8 13.2 347 32.4
2011-08-03 06:29:19 51°28.285 2°47.512 349 13.3 346 32.1
2011-08-03 06:29:23 51°28.299 2°47.507 348.9 13.3 347 31
2011-08-03 06:29:28 51°28.317 2°47.501 349.6 13.3 348 31.2
2011-08-03 06:29:34 51°28.339 2°47.494 350.2 13.3 349 31
2011-08-03 06:29:39 51°28.357 2°47.488 351.1 13.3 349 30.7
2011-08-03 06:29:43 51°28.372 2°47.484 351.7 13.3 350 30.3
2011-08-03 06:29:48 51°28.39 2°47.479 352.1 13.3 350 30.2
2011-08-03 06:29:53 51°28.408 2°47.474 352.2 13.3 350 30.3
2011-08-03 06:29:59 51°28.43 2°47.468 352.2 13.3 350 30.4
2011-08-03 06:30:03 51°28.444 2°47.464 352 13.3 349 29.7
2011-08-03 06:30:08 51°28.462 2°47.458 351.4 13.3 348 29.3
2011-08-03 06:30:13 51°28.48 2°47.452 350.3 13.3 348 29.3
2011-08-03 06:30:19 51°28.502 2°47.444 349.2 13.3 346 29.3
2011-08-03 06:30:23 51°28.516 2°47.438 348 13.3 345 28.8
2011-08-03 06:30:28 51°28.534 2°47.43 347 13.3 345 28.8
2011-08-03 06:30:33 51°28.552 2°47.422 346.7 13.3 345 28.5
2011-08-03 06:30:39 51°28.573 2°47.412 346.4 13.3 344 28.6
2011-08-03 06:30:43 51°28.587 2°47.405 345.9 13.3 344 28.5
2011-08-03 06:30:47 51°28.601 2°47.399 345.9 13.3 344 28
2011-08-03 06:30:54 51°28.626 2°47.388 345.8 13.3 344 27.8
2011-08-03 06:30:59 51°28.644 2°47.38 346.1 13.3 345 27.7
2011-08-03 06:31:03 51°28.658 2°47.374 346.6 13.3 345 27.4
2011-08-03 06:31:08 51°28.676 2°47.367 347.6 13.3 346 27.2
2011-08-03 06:31:14 51°28.698 2°47.358 347.7 13.3 346 27
2011-08-03 06:31:19 51°28.716 2°47.351 348 13.3 347 26.8
2011-08-03 06:31:23 51°28.73 2°47.347 348.5 13.3 348 26.7
2011-08-03 06:31:28 51°28.748 2°47.341 349.9 13.3 349 26.7
2011-08-03 06:31:34 51°28.77 2°47.334 351.1 13.3 350 26.7
2011-08-03 06:31:39 51°28.788 2°47.329 352 13.3 350 26.7
2011-08-03 06:31:43 51°28.803 2°47.325 352 13.3 350 26.9
2011-08-03 06:31:48 51°28.821 2°47.32 352.2 13.3 351 26.6
2011-08-03 06:31:53 51°28.839 2°47.315 352.3 13.3 350 26.6
2011-08-03 06:31:59 51°28.861 2°47.309 352.2 13.3 350 26.9
2011-08-03 06:32:03 51°28.875 2°47.305 352.3 13.3 350 27.1
2011-08-03 06:32:08 51°28.893 2°47.299 351.8 13.3 349 27
2011-08-03 06:32:13 51°28.911 2°47.293 350.7 13.3 348 27
2011-08-03 06:32:19 51°28.933 2°47.285 349.4 13.3 347 26.9
2011-08-03 06:32:23 51°28.947 2°47.279 348.4 13.3 346 27
2011-08-03 06:32:28 51°28.965 2°47.271 347.5 13.3 345 26.7
2011-08-03 06:32:33 51°28.983 2°47.263 346.9 13.3 344 26.5
2011-08-03 06:32:39 51°29.004 2°47.254 346.2 13.2 345 26